createdAt,value
2019-03-30T00:01:38.863Z,14.93
2019-03-30T00:04:09.658Z,15.57
2019-03-30T00:06:40.585Z,17.50
2019-03-30T00:09:11.830Z,15.30
2019-03-30T00:11:45.216Z,15.13
2019-03-30T00:14:16.068Z,14.63
2019-03-30T00:16:47.216Z,14.87
2019-03-30T00:19:34.190Z,20.60
2019-03-30T00:21:54.613Z,16.50
2019-03-30T00:24:25.416Z,22.63
2019-03-30T00:26:56.388Z,24.47
2019-03-30T00:29:27.132Z,17.07
2019-03-30T00:31:58.162Z,19.87
2019-03-30T00:34:29.830Z,15.73
2019-03-30T00:37:08.665Z,17.83
2019-03-30T00:39:39.451Z,14.63
2019-03-30T00:42:10.235Z,16.00
2019-03-30T00:44:40.985Z,17.47
2019-03-30T00:47:11.772Z,15.23
2019-03-30T00:49:49.242Z,14.83
2019-03-30T00:52:16.291Z,16.33
2019-03-30T00:54:47.195Z,17.07
2019-03-30T00:57:18.037Z,16.50
2019-03-30T00:59:56.623Z,15.30
2019-03-30T01:02:35.776Z,16.83
2019-03-30T01:05:06.829Z,18.77
2019-03-30T01:07:37.613Z,17.50
2019-03-30T01:10:44.061Z,17.50
2019-03-30T01:12:46.559Z,17.10
2019-03-30T01:15:17.861Z,18.97
2019-03-30T01:17:48.591Z,17.73
2019-03-30T01:20:19.295Z,17.17
2019-03-30T01:22:50.055Z,16.97
2019-03-30T01:25:20.767Z,19.23
2019-03-30T01:27:51.563Z,14.97
2019-03-30T01:30:23.590Z,16.33
2019-03-30T01:32:54.504Z,18.63
2019-03-30T01:35:25.430Z,20.40
2019-03-30T01:37:56.344Z,16.63
2019-03-30T01:40:27.033Z,16.97
2019-03-30T01:42:57.956Z,17.83
2019-03-30T01:45:28.743Z,19.23
2019-03-30T01:47:59.629Z,16.93
2019-03-30T01:50:30.699Z,15.70
2019-03-30T01:53:01.693Z,13.60
2019-03-30T01:55:32.462Z,17.57
2019-03-30T01:58:03.233Z,14.53
2019-03-30T02:00:34.137Z,15.37
2019-03-30T02:03:04.889Z,13.90
2019-03-30T02:05:35.589Z,14.40
2019-03-30T02:08:06.441Z,15.70
2019-03-30T02:10:41.902Z,16.03
2019-03-30T02:13:12.840Z,15.67
2019-03-30T02:15:43.503Z,16.23
2019-03-30T02:18:14.436Z,16.40
2019-03-30T02:20:46.711Z,16.20
2019-03-30T02:23:18.017Z,10.80
2019-03-30T02:25:52.133Z,11.80
2019-03-30T02:28:22.852Z,14.20
2019-03-30T02:30:53.703Z,16.17
2019-03-30T02:33:24.420Z,15.57
2019-03-30T02:35:55.364Z,17.50
2019-03-30T02:38:26.112Z,19.83
2019-03-30T02:40:56.861Z,19.50
2019-03-30T02:43:27.579Z,16.57
2019-03-30T02:45:58.348Z,18.73
2019-03-30T02:48:29.083Z,22.43
2019-03-30T02:50:59.824Z,22.30
2019-03-30T02:53:30.645Z,17.20
2019-03-30T02:56:01.502Z,17.33
2019-03-30T02:58:32.441Z,19.13
2019-03-30T03:01:03.375Z,19.20
2019-03-30T03:03:35.721Z,21.43
2019-03-30T03:06:06.523Z,20.47
2019-03-30T03:08:37.270Z,20.90
2019-03-30T03:11:09.249Z,20.77
2019-03-30T03:13:40.302Z,17.23
2019-03-30T03:16:29.538Z,20.97
2019-03-30T03:19:00.417Z,19.40
2019-03-30T03:21:31.167Z,21.40
2019-03-30T03:24:01.852Z,20.17
2019-03-30T03:26:32.587Z,20.97
2019-03-30T03:29:03.340Z,20.07
2019-03-30T03:31:34.117Z,20.27
2019-03-30T03:34:04.823Z,21.23
2019-03-30T03:36:35.437Z,22.43
2019-03-30T03:39:07.545Z,21.13
2019-03-30T03:41:38.685Z,24.47
2019-03-30T03:44:09.543Z,23.03
2019-03-30T03:46:40.311Z,24.00
2019-03-30T03:49:11.165Z,22.60
2019-03-30T03:51:42.400Z,21.80
2019-03-30T03:54:13.116Z,25.47
2019-03-30T03:56:45.289Z,23.37
2019-03-30T03:59:17.177Z,21.43
2019-03-30T04:01:49.852Z,25.27
2019-03-30T04:04:22.807Z,24.27
2019-03-30T04:06:54.660Z,22.20
2019-03-30T04:09:26.796Z,24.67
2019-03-30T04:11:59.342Z,24.43
2019-03-30T04:14:30.810Z,21.67
2019-03-30T04:17:01.339Z,20.70
2019-03-30T04:19:32.860Z,20.00
2019-03-30T04:22:09.137Z,20.00
2019-03-30T04:24:42.330Z,21.37
2019-03-30T04:27:13.153Z,23.20
2019-03-30T04:29:44.353Z,23.13
2019-03-30T04:32:15.174Z,21.33
2019-03-30T04:34:45.882Z,23.73
2019-03-30T04:37:16.620Z,23.87
2019-03-30T04:39:47.257Z,25.63
2019-03-30T04:42:18.113Z,22.17
2019-03-30T04:44:49.228Z,24.60
2019-03-30T04:47:20.064Z,24.33
2019-03-30T04:49:50.848Z,22.30
2019-03-30T04:52:22.519Z,21.10
2019-03-30T04:54:53.384Z,25.23
2019-03-30T04:57:24.171Z,24.80
2019-03-30T04:59:54.885Z,25.40
2019-03-30T05:02:25.710Z,25.73
2019-03-30T05:04:56.436Z,26.17
2019-03-30T05:07:27.208Z,24.77
2019-03-30T05:09:57.896Z,26.07
2019-03-30T05:12:28.561Z,24.60
2019-03-30T05:14:59.523Z,22.57
2019-03-30T05:17:46.305Z,23.13
2019-03-30T05:20:02.979Z,25.20
2019-03-30T05:22:33.819Z,24.60
2019-03-30T05:25:04.551Z,24.33
2019-03-30T05:27:35.342Z,24.97
2019-03-30T05:30:06.962Z,22.63
2019-03-30T05:32:37.752Z,23.77
2019-03-30T05:35:09.243Z,22.70
2019-03-30T05:37:40.003Z,21.97
2019-03-30T05:40:11.623Z,23.63
2019-03-30T05:42:42.389Z,22.10
2019-03-30T05:45:13.416Z,23.30
2019-03-30T05:47:44.248Z,21.43
2019-03-30T05:50:33.418Z,27.03
2019-03-30T05:53:04.086Z,23.53
2019-03-30T05:55:34.931Z,22.27
2019-03-30T05:58:05.798Z,23.00
2019-03-30T06:00:36.600Z,21.80
2019-03-30T06:03:07.416Z,22.97
2019-03-30T06:05:38.538Z,41.27
2019-03-30T06:08:09.769Z,44.23
2019-03-30T06:10:40.574Z,34.77
2019-03-30T06:13:11.358Z,29.60
2019-03-30T06:15:42.112Z,22.30
2019-03-30T06:18:31.361Z,21.03
2019-03-30T06:21:02.137Z,20.13
2019-03-30T06:23:50.648Z,22.13
2019-03-30T06:26:44.322Z,19.30
2019-03-30T06:28:53.860Z,21.43
2019-03-30T06:31:24.580Z,22.67
2019-03-30T06:33:55.373Z,22.17
2019-03-30T06:36:26.163Z,22.17
2019-03-30T06:38:56.943Z,21.07
2019-03-30T06:41:27.940Z,22.50
2019-03-30T06:43:58.660Z,19.40
2019-03-30T06:46:29.416Z,18.90
2019-03-30T06:49:00.128Z,19.77
2019-03-30T06:51:31.083Z,18.27
2019-03-30T06:54:01.818Z,19.17
2019-03-30T06:56:32.541Z,19.30
2019-03-30T06:59:03.304Z,20.23
2019-03-30T07:01:34.479Z,22.40
2019-03-30T07:04:05.429Z,22.07
2019-03-30T07:06:37.039Z,25.27
2019-03-30T07:09:07.975Z,24.80
2019-03-30T07:11:42.737Z,25.77
2019-03-30T07:14:13.632Z,25.57
2019-03-30T07:16:45.309Z,25.17
2019-03-30T07:19:16.149Z,27.33
2019-03-30T07:21:46.875Z,26.17
2019-03-30T07:24:17.595Z,29.00
2019-03-30T07:26:48.372Z,24.47
2019-03-30T07:29:19.156Z,25.13
2019-03-30T07:31:49.927Z,25.60
2019-03-30T07:34:20.764Z,23.67
2019-03-30T07:36:51.510Z,26.93
2019-03-30T07:39:22.355Z,22.83
2019-03-30T07:41:53.147Z,22.40
2019-03-30T07:44:23.903Z,22.90
2019-03-30T07:46:55.025Z,24.23
2019-03-30T07:49:25.811Z,20.60
2019-03-30T07:51:56.700Z,22.47
2019-03-30T07:54:27.554Z,21.53
2019-03-30T07:57:05.239Z,20.53
2019-03-30T07:59:30.691Z,20.90
2019-03-30T08:02:01.495Z,20.57
2019-03-30T08:04:32.343Z,19.40
2019-03-30T08:07:03.257Z,16.87
2019-03-30T08:09:37.059Z,17.13
2019-03-30T08:12:25.003Z,16.40
2019-03-30T08:14:55.783Z,17.43
2019-03-30T08:17:26.563Z,18.77
2019-03-30T08:19:57.341Z,16.70
2019-03-30T08:22:28.027Z,18.10
2019-03-30T08:24:58.782Z,21.20
2019-03-30T08:27:29.530Z,19.40
2019-03-30T08:30:00.381Z,18.40
2019-03-30T08:32:31.394Z,18.03
2019-03-30T08:35:02.156Z,20.53
2019-03-30T08:37:32.880Z,17.67
2019-03-30T08:40:03.680Z,20.17
2019-03-30T08:42:34.495Z,21.20
2019-03-30T08:45:05.743Z,21.27
2019-03-30T08:47:36.552Z,18.43
2019-03-30T08:50:08.351Z,18.40
2019-03-30T08:52:39.164Z,18.33
2019-03-30T08:55:10.457Z,18.87
2019-03-30T08:57:41.202Z,17.53
2019-03-30T09:00:12.374Z,16.73
2019-03-30T09:02:43.299Z,17.53
2019-03-30T09:05:14.160Z,17.20
2019-03-30T09:07:45.008Z,17.70
2019-03-30T09:10:15.901Z,17.57
2019-03-30T09:12:46.532Z,18.37
2019-03-30T09:15:17.281Z,18.20
2019-03-30T09:17:47.984Z,18.50
2019-03-30T09:20:18.826Z,18.10
2019-03-30T09:22:55.000Z,16.43
2019-03-30T09:25:25.739Z,18.70
2019-03-30T09:27:56.568Z,16.67
2019-03-30T09:30:27.306Z,15.93
2019-03-30T09:32:58.051Z,14.90
2019-03-30T09:35:28.820Z,17.10
2019-03-30T09:37:59.618Z,14.40
2019-03-30T09:40:30.478Z,16.57
2019-03-30T09:43:01.216Z,14.93
2019-03-30T09:45:32.116Z,15.23
2019-03-30T09:48:02.840Z,14.67
2019-03-30T09:50:33.629Z,14.47
2019-03-30T09:53:04.462Z,14.80
2019-03-30T09:55:35.516Z,15.10
2019-03-30T09:58:06.301Z,14.03
2019-03-30T10:00:37.083Z,14.33
2019-03-30T10:03:07.966Z,13.57
2019-03-30T10:05:38.543Z,14.37
2019-03-30T10:08:09.325Z,13.20
2019-03-30T10:10:40.074Z,12.53
2019-03-30T10:13:10.802Z,13.57
2019-03-30T10:15:41.459Z,13.17
2019-03-30T10:18:12.194Z,12.73
2019-03-30T10:20:42.916Z,12.53
2019-03-30T10:23:13.752Z,14.57
2019-03-30T10:25:44.502Z,13.37
2019-03-30T10:28:15.218Z,13.13
2019-03-30T10:30:45.955Z,13.80
2019-03-30T10:33:16.676Z,14.50
2019-03-30T10:35:47.470Z,14.37
2019-03-30T10:38:18.168Z,12.60
2019-03-30T10:40:48.895Z,14.73
2019-03-30T10:43:19.639Z,13.20
2019-03-30T10:45:50.461Z,12.80
2019-03-30T10:48:21.202Z,13.03
2019-03-30T10:50:51.935Z,13.07
2019-03-30T10:53:22.670Z,13.40
2019-03-30T10:55:53.418Z,13.67
2019-03-30T10:58:24.443Z,13.57
2019-03-30T11:00:55.174Z,12.80
2019-03-30T11:03:25.987Z,12.17
2019-03-30T11:05:56.953Z,11.97
2019-03-30T11:08:27.634Z,11.57
2019-03-30T11:10:58.487Z,11.53
2019-03-30T11:13:29.323Z,12.00
2019-03-30T11:16:00.100Z,12.13
2019-03-30T11:18:30.845Z,10.97
2019-03-30T11:21:01.580Z,10.20
2019-03-30T11:23:32.446Z,11.03
2019-03-30T11:26:03.341Z,10.97
2019-03-30T11:28:34.281Z,12.70
2019-03-30T11:31:05.479Z,11.40
2019-03-30T11:33:36.467Z,10.20
2019-03-30T11:36:07.205Z,10.03
2019-03-30T11:38:37.979Z,9.97
2019-03-30T11:41:08.771Z,10.50
2019-03-30T11:43:39.549Z,10.17
2019-03-30T11:46:10.361Z,10.13
2019-03-30T11:48:41.129Z,10.80
2019-03-30T11:51:11.935Z,10.17
2019-03-30T11:53:42.650Z,10.63
2019-03-30T11:56:13.387Z,10.80
2019-03-30T11:58:44.118Z,10.73
2019-03-30T12:01:14.903Z,10.63
2019-03-30T12:03:45.797Z,10.23
2019-03-30T12:06:16.559Z,10.80
2019-03-30T12:08:47.181Z,9.93
2019-03-30T12:11:17.923Z,11.10
2019-03-30T12:13:48.671Z,9.57
2019-03-30T12:16:19.499Z,9.83
2019-03-30T12:18:50.163Z,10.20
2019-03-30T12:21:20.833Z,10.87
2019-03-30T12:23:51.554Z,10.10
2019-03-30T12:26:22.301Z,10.53
2019-03-30T12:28:53.043Z,11.50
2019-03-30T12:31:23.875Z,11.17
2019-03-30T12:33:54.595Z,9.20
2019-03-30T12:36:25.341Z,9.23
2019-03-30T12:38:56.116Z,9.53
2019-03-30T12:41:26.556Z,9.07
2019-03-30T12:43:56.642Z,8.43
2019-03-30T12:46:26.896Z,8.90
2019-03-30T12:48:57.224Z,8.90
2019-03-30T12:51:27.548Z,9.63
2019-03-30T12:53:57.616Z,7.83
2019-03-30T12:56:27.784Z,8.67
2019-03-30T12:58:57.925Z,9.23
2019-03-30T13:01:28.041Z,10.50
2019-03-30T13:03:58.352Z,8.00
2019-03-30T13:06:28.557Z,9.37
2019-03-30T13:08:58.702Z,7.77
2019-03-30T13:11:28.893Z,7.30
2019-03-30T13:13:59.146Z,7.63
2019-03-30T13:16:29.440Z,7.67
2019-03-30T13:18:59.793Z,7.13
2019-03-30T13:21:32.248Z,7.23
2019-03-30T13:24:01.919Z,6.50
2019-03-30T13:26:32.285Z,6.17
2019-03-30T13:29:02.417Z,5.60
2019-03-30T13:31:32.741Z,6.03
2019-03-30T13:34:03.169Z,6.10
2019-03-30T13:36:51.670Z,5.80
2019-03-30T13:39:21.863Z,6.20
2019-03-30T13:41:52.156Z,6.97
2019-03-30T13:44:22.463Z,7.10
2019-03-30T13:46:52.606Z,6.70
2019-03-30T13:49:22.769Z,7.60
2019-03-30T13:51:53.064Z,8.30
2019-03-30T13:54:23.476Z,9.03
2019-03-30T13:56:53.837Z,7.90
2019-03-30T13:59:24.122Z,9.57
2019-03-30T14:01:54.465Z,8.47
2019-03-30T14:04:24.704Z,8.87
2019-03-30T14:06:54.905Z,9.43
2019-03-30T14:09:25.361Z,8.47
2019-03-30T14:11:55.484Z,9.53
2019-03-30T14:14:25.699Z,11.90
2019-03-30T14:16:55.852Z,8.90
2019-03-30T14:19:25.898Z,9.80
2019-03-30T14:21:56.324Z,8.80
2019-03-30T14:24:26.557Z,9.60
2019-03-30T14:26:56.915Z,10.57
2019-03-30T14:29:27.208Z,10.03
2019-03-30T14:31:57.415Z,10.77
2019-03-30T14:34:27.794Z,8.77
2019-03-30T14:36:57.908Z,9.83
2019-03-30T14:39:28.084Z,10.30
2019-03-30T14:41:58.460Z,10.53
2019-03-30T14:44:28.630Z,10.97
2019-03-30T14:46:58.799Z,10.03
2019-03-30T14:49:29.022Z,12.63
2019-03-30T14:51:59.048Z,12.43
2019-03-30T14:54:29.170Z,10.03
2019-03-30T14:56:59.383Z,11.20
2019-03-30T14:59:29.485Z,12.70
2019-03-30T15:01:59.718Z,14.27
2019-03-30T15:04:29.917Z,10.10
2019-03-30T15:07:00.126Z,12.50
2019-03-30T15:09:30.392Z,9.80
2019-03-30T15:12:00.656Z,9.50
2019-03-30T15:14:30.733Z,11.20
2019-03-30T15:17:00.953Z,12.90
2019-03-30T15:19:31.069Z,10.50
2019-03-30T15:22:01.334Z,10.80
2019-03-30T15:24:31.518Z,10.80
2019-03-30T15:27:02.125Z,9.43
2019-03-30T15:29:32.486Z,12.83
2019-03-30T15:32:02.889Z,11.97
2019-03-30T15:34:32.993Z,9.47
2019-03-30T15:37:03.182Z,10.63
2019-03-30T15:39:33.453Z,11.83
2019-03-30T15:42:03.757Z,10.53
2019-03-30T15:44:34.000Z,10.57
2019-03-30T15:47:04.313Z,11.00
2019-03-30T15:49:34.656Z,10.93
2019-03-30T15:52:13.787Z,10.77
2019-03-30T15:54:37.402Z,10.70
2019-03-30T15:57:14.066Z,10.17
2019-03-30T15:59:39.636Z,10.80
2019-03-30T16:02:09.932Z,10.37
2019-03-30T16:04:40.185Z,15.03
2019-03-30T16:07:10.485Z,11.40
2019-03-30T16:09:40.831Z,11.47
2019-03-30T16:12:11.126Z,11.87
2019-03-30T16:14:41.453Z,12.50
2019-03-30T16:17:14.634Z,11.27
2019-03-30T16:19:43.666Z,14.50
2019-03-30T16:22:13.917Z,17.00
2019-03-30T16:24:44.069Z,17.57
2019-03-30T16:27:27.875Z,15.43
2019-03-30T16:29:46.531Z,12.27
2019-03-30T16:32:17.964Z,14.37
2019-03-30T16:34:48.185Z,15.50
2019-03-30T16:37:18.583Z,14.23
2019-03-30T16:39:48.731Z,14.53
2019-03-30T16:42:18.973Z,12.67
2019-03-30T16:44:49.408Z,14.10
2019-03-30T16:47:19.684Z,13.70
2019-03-30T16:49:50.134Z,15.90
2019-03-30T16:52:20.490Z,16.07
2019-03-30T16:54:50.800Z,12.67
2019-03-30T16:57:21.133Z,15.07
2019-03-30T16:59:51.364Z,14.97
2019-03-30T17:02:21.723Z,14.87
2019-03-30T17:04:51.905Z,15.07
2019-03-30T17:07:22.232Z,17.87
2019-03-30T17:09:52.553Z,14.73
2019-03-30T17:12:22.708Z,13.03
2019-03-30T17:14:53.098Z,14.67
2019-03-30T17:17:23.261Z,13.53
2019-03-30T17:19:53.561Z,12.70
2019-03-30T17:22:23.709Z,16.90
2019-03-30T17:24:53.981Z,17.83
2019-03-30T17:27:24.344Z,16.30
2019-03-30T17:29:54.701Z,18.13
2019-03-30T17:32:24.953Z,24.83
2019-03-30T17:34:55.209Z,20.73
2019-03-30T17:37:25.351Z,14.20
2019-03-30T17:39:55.621Z,11.57
2019-03-30T17:42:25.849Z,10.00
2019-03-30T17:44:56.133Z,12.70
2019-03-30T17:47:26.245Z,9.90
2019-03-30T17:49:56.517Z,10.00
2019-03-30T17:52:26.827Z,9.20
2019-03-30T17:54:57.076Z,8.87
2019-03-30T17:57:27.447Z,7.67
2019-03-30T17:59:58.015Z,10.13
2019-03-30T18:02:28.292Z,10.73
2019-03-30T18:04:58.804Z,13.80
2019-03-30T18:07:29.032Z,17.00
2019-03-30T18:09:59.171Z,20.57
2019-03-30T18:12:29.638Z,20.63
2019-03-30T18:14:59.957Z,16.00
2019-03-30T18:17:30.401Z,13.67
2019-03-30T18:20:00.727Z,8.90
2019-03-30T18:22:31.061Z,7.97
2019-03-30T18:25:01.202Z,21.30
2019-03-30T18:27:33.230Z,12.43
2019-03-30T18:30:03.388Z,15.30
2019-03-30T18:32:34.196Z,11.80
2019-03-30T18:35:05.022Z,11.73
2019-03-30T18:37:36.688Z,12.87
2019-03-30T18:40:08.158Z,10.87
2019-03-30T18:42:38.464Z,11.00
2019-03-30T18:45:10.907Z,11.70
2019-03-30T18:47:41.050Z,12.17
2019-03-30T18:50:11.768Z,9.60
2019-03-30T18:52:42.024Z,9.93
2019-03-30T18:55:14.494Z,9.00
2019-03-30T18:57:44.585Z,9.53
2019-03-30T19:00:17.786Z,8.50
2019-03-30T19:02:48.120Z,8.67
2019-03-30T19:05:18.224Z,7.00
2019-03-30T19:07:48.642Z,7.00
2019-03-30T19:10:19.060Z,9.07
2019-03-30T19:12:49.520Z,8.10
2019-03-30T19:15:19.816Z,8.60
2019-03-30T19:17:50.084Z,8.57
2019-03-30T19:20:20.493Z,7.13
2019-03-30T19:22:50.627Z,8.03
2019-03-30T19:25:20.805Z,7.97
2019-03-30T19:27:51.155Z,7.87
2019-03-30T19:30:21.708Z,7.10
2019-03-30T19:32:51.926Z,9.50
2019-03-30T19:35:22.140Z,12.10
2019-03-30T19:37:52.276Z,19.27
2019-03-30T19:40:22.681Z,17.17
2019-03-30T19:42:52.913Z,11.03
2019-03-30T19:45:23.168Z,12.63
2019-03-30T19:47:53.457Z,12.53
2019-03-30T19:50:24.385Z,14.27
2019-03-30T19:52:54.526Z,13.07
2019-03-30T19:55:24.845Z,15.03
2019-03-30T19:57:54.999Z,13.33
2019-03-30T20:00:25.388Z,10.27
2019-03-30T20:02:55.759Z,11.93
2019-03-30T20:05:25.956Z,9.43
2019-03-30T20:07:56.239Z,8.50
2019-03-30T20:10:26.563Z,11.37
2019-03-30T20:12:56.801Z,11.27
2019-03-30T20:15:27.222Z,11.93
2019-03-30T20:17:57.358Z,12.10
2019-03-30T20:20:27.674Z,12.33
2019-03-30T20:22:57.963Z,12.97
2019-03-30T20:25:28.317Z,10.77
2019-03-30T20:27:58.617Z,14.47
2019-03-30T20:30:28.693Z,10.57
2019-03-30T20:32:59.187Z,9.77
2019-03-30T20:35:29.577Z,10.83
2019-03-30T20:38:00.026Z,9.97
2019-03-30T20:40:30.361Z,15.17
2019-03-30T20:43:00.817Z,9.50
2019-03-30T20:45:31.117Z,9.83
2019-03-30T20:48:01.245Z,9.87
2019-03-30T20:50:31.455Z,11.13
2019-03-30T20:53:01.557Z,11.83
2019-03-30T20:55:33.940Z,13.53
2019-03-30T20:58:03.675Z,11.53
2019-03-30T21:00:34.085Z,11.70
2019-03-30T21:03:04.471Z,10.50
2019-03-30T21:05:34.643Z,12.07
2019-03-30T21:08:04.839Z,17.43
2019-03-30T21:10:35.162Z,15.40
2019-03-30T21:13:05.662Z,13.43
2019-03-30T21:15:36.092Z,13.87
2019-03-30T21:18:06.361Z,11.77
2019-03-30T21:20:36.534Z,12.73
2019-03-30T21:23:06.722Z,13.73
2019-03-30T21:25:37.159Z,14.90
2019-03-30T21:28:07.687Z,13.07
2019-03-30T21:30:38.031Z,12.83
2019-03-30T21:33:08.124Z,17.20
2019-03-30T21:35:38.513Z,14.87
2019-03-30T21:38:08.853Z,15.00
2019-03-30T21:40:39.012Z,14.77
2019-03-30T21:43:09.298Z,15.67
2019-03-30T21:45:39.457Z,15.73
2019-03-30T21:48:09.656Z,13.27
2019-03-30T21:50:40.008Z,16.13
2019-03-30T21:53:10.189Z,16.27
2019-03-30T21:55:40.421Z,15.20
2019-03-30T21:58:10.734Z,15.10
2019-03-30T22:00:41.568Z,21.63
2019-03-30T22:03:12.020Z,26.37
2019-03-30T22:05:42.272Z,27.20
2019-03-30T22:08:12.450Z,24.53
2019-03-30T22:10:42.760Z,25.10
2019-03-30T22:13:13.024Z,20.17
2019-03-30T22:15:43.232Z,19.20
2019-03-30T22:18:13.454Z,19.97
2019-03-30T22:20:43.788Z,20.20
2019-03-30T22:23:14.000Z,18.00
2019-03-30T22:25:44.328Z,15.60
2019-03-30T22:28:14.428Z,18.80
2019-03-30T22:30:44.766Z,18.17
2019-03-30T22:33:14.842Z,17.47
2019-03-30T22:35:45.132Z,17.77
2019-03-30T22:38:15.422Z,19.80
2019-03-30T22:40:45.782Z,18.00
2019-03-30T22:43:16.069Z,16.67
2019-03-30T22:45:46.420Z,16.50
2019-03-30T22:48:16.718Z,16.13
2019-03-30T22:50:46.880Z,18.67
2019-03-30T22:53:17.132Z,18.27
2019-03-30T22:55:47.419Z,17.87
2019-03-30T22:58:17.820Z,18.17
2019-03-30T23:01:09.358Z,18.47
2019-03-30T23:03:39.692Z,16.63
2019-03-30T23:06:10.078Z,19.70
2019-03-30T23:08:40.306Z,14.47
2019-03-30T23:11:11.139Z,16.67
2019-03-30T23:13:41.522Z,16.40
2019-03-30T23:16:11.615Z,16.70
2019-03-30T23:18:45.120Z,17.63
2019-03-30T23:21:13.880Z,18.00
2019-03-30T23:23:44.013Z,17.03
2019-03-30T23:26:14.316Z,19.67
2019-03-30T23:28:44.672Z,19.07
2019-03-30T23:31:14.741Z,16.60
2019-03-30T23:33:44.858Z,17.70
2019-03-30T23:36:15.000Z,16.90
2019-03-30T23:38:45.272Z,16.70
2019-03-30T23:41:15.583Z,18.00
2019-03-30T23:43:45.708Z,17.30
2019-03-30T23:46:16.025Z,18.77
2019-03-30T23:48:46.121Z,16.17
2019-03-30T23:51:16.380Z,15.47
2019-03-30T23:53:46.579Z,17.93
2019-03-30T23:56:24.112Z,14.73
2019-03-30T23:58:54.463Z,14.03
